sensor_id;sensor_type;location;lat;lon;timestamp;temperature;humidity
40257;DHT22;25977;45.462;9.210;2023-03-31T00:00:44;15.70;72.00
40257;DHT22;25977;45.462;9.210;2023-03-31T00:03:13;15.70;71.90
40257;DHT22;25977;45.462;9.210;2023-03-31T00:05:47;15.70;71.80
40257;DHT22;25977;45.462;9.210;2023-03-31T00:08:13;15.80;71.20
40257;DHT22;25977;45.462;9.210;2023-03-31T00:10:44;15.70;71.60
40257;DHT22;25977;45.462;9.210;2023-03-31T00:13:10;15.80;71.60
40257;DHT22;25977;45.462;9.210;2023-03-31T00:15:36;15.90;71.50
40257;DHT22;25977;45.462;9.210;2023-03-31T00:18:03;15.90;71.90
40257;DHT22;25977;45.462;9.210;2023-03-31T00:20:28;15.80;71.20
40257;DHT22;25977;45.462;9.210;2023-03-31T00:22:54;15.70;71.60
40257;DHT22;25977;45.462;9.210;2023-03-31T00:25:21;15.70;71.50
40257;DHT22;25977;45.462;9.210;2023-03-31T00:27:47;15.50;71.70
40257;DHT22;25977;45.462;9.210;2023-03-31T00:30:15;15.60;71.70
40257;DHT22;25977;45.462;9.210;2023-03-31T00:32:41;15.70;71.60
40257;DHT22;25977;45.462;9.210;2023-03-31T00:35:07;15.80;71.40
40257;DHT22;25977;45.462;9.210;2023-03-31T00:37:33;15.80;71.30
40257;DHT22;25977;45.462;9.210;2023-03-31T00:39:59;15.70;71.30
40257;DHT22;25977;45.462;9.210;2023-03-31T00:42:25;15.80;71.30
40257;DHT22;25977;45.462;9.210;2023-03-31T00:50:25;15.70;71.30
40257;DHT22;25977;45.462;9.210;2023-03-31T00:53:15;15.70;71.20
40257;DHT22;25977;45.462;9.210;2023-03-31T00:55:45;15.80;71.10
40257;DHT22;25977;45.462;9.210;2023-03-31T00:58:13;15.80;71.00
40257;DHT22;25977;45.462;9.210;2023-03-31T01:00:48;15.50;71.30
40257;DHT22;25977;45.462;9.210;2023-03-31T01:03:16;15.60;71.40
40257;DHT22;25977;45.462;9.210;2023-03-31T01:05:49;15.60;71.30
40257;DHT22;25977;45.462;9.210;2023-03-31T01:08:18;15.70;71.20
40257;DHT22;25977;45.462;9.210;2023-03-31T01:10:47;15.70;71.10
40257;DHT22;25977;45.462;9.210;2023-03-31T01:13:16;15.70;71.00
40257;DHT22;25977;45.462;9.210;2023-03-31T01:15:43;15.60;71.30
40257;DHT22;25977;45.462;9.210;2023-03-31T01:18:10;15.60;71.40
40257;DHT22;25977;45.462;9.210;2023-03-31T01:26:35;15.70;71.30
40257;DHT22;25977;45.462;9.210;2023-03-31T01:45:56;15.70;71.30
40257;DHT22;25977;45.462;9.210;2023-03-31T01:48:46;15.70;71.90
40257;DHT22;25977;45.462;9.210;2023-03-31T01:51:25;15.70;71.30
40257;DHT22;25977;45.462;9.210;2023-03-31T02:01:57;15.70;71.40
40257;DHT22;25977;45.462;9.210;2023-03-31T02:04:37;15.60;71.20
40257;DHT22;25977;45.462;9.210;2023-03-31T02:07:21;15.70;71.20
40257;DHT22;25977;45.462;9.210;2023-03-31T02:09:52;15.80;71.20
40257;DHT22;25977;45.462;9.210;2023-03-31T02:12:21;15.80;71.20
40257;DHT22;25977;45.462;9.210;2023-03-31T02:14:51;15.70;71.20
40257;DHT22;25977;45.462;9.210;2023-03-31T02:17:22;15.60;71.30
40257;DHT22;25977;45.462;9.210;2023-03-31T02:19:56;15.50;71.50
40257;DHT22;25977;45.462;9.210;2023-03-31T02:22:22;15.50;71.00
40257;DHT22;25977;45.462;9.210;2023-03-31T02:24:50;15.60;71.60
40257;DHT22;25977;45.462;9.210;2023-03-31T02:27:24;15.60;71.40
40257;DHT22;25977;45.462;9.210;2023-03-31T02:29:53;15.60;71.30
40257;DHT22;25977;45.462;9.210;2023-03-31T02:32:32;15.70;71.30
40257;DHT22;25977;45.462;9.210;2023-03-31T02:35:00;15.70;71.20
40257;DHT22;25977;45.462;9.210;2023-03-31T02:37:27;15.70;71.30
40257;DHT22;25977;45.462;9.210;2023-03-31T02:39:55;15.60;71.20
40257;DHT22;25977;45.462;9.210;2023-03-31T02:42:22;15.70;71.10
40257;DHT22;25977;45.462;9.210;2023-03-31T02:44:50;15.70;71.00
40257;DHT22;25977;45.462;9.210;2023-03-31T02:47:18;15.70;71.00
40257;DHT22;25977;45.462;9.210;2023-03-31T02:49:49;15.70;70.90
40257;DHT22;25977;45.462;9.210;2023-03-31T02:55:33;15.70;70.90
40257;DHT22;25977;45.462;9.210;2023-03-31T03:03:53;15.50;71.30
40257;DHT22;25977;45.462;9.210;2023-03-31T03:12:24;15.50;71.30
40257;DHT22;25977;45.462;9.210;2023-03-31T03:15:05;15.50;71.60
40257;DHT22;25977;45.462;9.210;2023-03-31T03:17:44;15.50;71.60
40257;DHT22;25977;45.462;9.210;2023-03-31T03:20:12;15.50;71.60
40257;DHT22;25977;45.462;9.210;2023-03-31T03:22:39;15.60;71.60
40257;DHT22;25977;45.462;9.210;2023-03-31T03:25:07;15.60;71.40
40257;DHT22;25977;45.462;9.210;2023-03-31T03:27:37;15.70;71.30
40257;DHT22;25977;45.462;9.210;2023-03-31T03:30:05;15.70;71.20
40257;DHT22;25977;45.462;9.210;2023-03-31T03:32:31;15.70;71.10
40257;DHT22;25977;45.462;9.210;2023-03-31T03:34:58;15.70;71.10
40257;DHT22;25977;45.462;9.210;2023-03-31T03:37:24;15.80;71.10
40257;DHT22;25977;45.462;9.210;2023-03-31T03:39:50;15.70;71.00
40257;DHT22;25977;45.462;9.210;2023-03-31T03:42:16;15.80;71.00
40257;DHT22;25977;45.462;9.210;2023-03-31T03:44:41;15.70;71.00
40257;DHT22;25977;45.462;9.210;2023-03-31T03:47:07;15.70;71.10
40257;DHT22;25977;45.462;9.210;2023-03-31T03:49:33;15.80;71.10
40257;DHT22;25977;45.462;9.210;2023-03-31T03:51:58;15.70;71.10
40257;DHT22;25977;45.462;9.210;2023-03-31T03:54:24;15.60;71.40
40257;DHT22;25977;45.462;9.210;2023-03-31T03:56:50;15.50;71.70
40257;DHT22;25977;45.462;9.210;2023-03-31T03:59:15;15.50;71.60
40257;DHT22;25977;45.462;9.210;2023-03-31T04:01:41;15.60;71.70
40257;DHT22;25977;45.462;9.210;2023-03-31T04:04:07;15.90;71.80
40257;DHT22;25977;45.462;9.210;2023-03-31T04:06:32;15.60;71.50
40257;DHT22;25977;45.462;9.210;2023-03-31T04:08:58;15.70;71.70
40257;DHT22;25977;45.462;9.210;2023-03-31T04:11:24;15.60;71.80
40257;DHT22;25977;45.462;9.210;2023-03-31T04:13:50;15.60;71.90
40257;DHT22;25977;45.462;9.210;2023-03-31T04:16:16;15.50;72.00
40257;DHT22;25977;45.462;9.210;2023-03-31T04:18:41;15.50;71.90
40257;DHT22;25977;45.462;9.210;2023-03-31T04:21:14;15.60;72.00
40257;DHT22;25977;45.462;9.210;2023-03-31T04:23:48;15.60;71.80
40257;DHT22;25977;45.462;9.210;2023-03-31T04:26:16;15.60;71.80
40257;DHT22;25977;45.462;9.210;2023-03-31T04:28:43;15.70;71.80
40257;DHT22;25977;45.462;9.210;2023-03-31T04:31:12;15.60;71.70
40257;DHT22;25977;45.462;9.210;2023-03-31T04:33:41;15.50;72.00
40257;DHT22;25977;45.462;9.210;2023-03-31T04:36:10;15.50;72.10
40257;DHT22;25977;45.462;9.210;2023-03-31T04:38:51;15.60;72.10
40257;DHT22;25977;45.462;9.210;2023-03-31T04:41:21;15.60;72.00
40257;DHT22;25977;45.462;9.210;2023-03-31T04:43:47;15.60;72.00
40257;DHT22;25977;45.462;9.210;2023-03-31T04:46:12;15.60;71.90
40257;DHT22;25977;45.462;9.210;2023-03-31T04:48:38;15.60;72.00
40257;DHT22;25977;45.462;9.210;2023-03-31T04:51:04;15.60;74.20
40257;DHT22;25977;45.462;9.210;2023-03-31T04:55:56;15.70;84.10
40257;DHT22;25977;45.462;9.210;2023-03-31T04:58:22;15.70;71.90
40257;DHT22;25977;45.462;9.210;2023-03-31T05:00:48;15.70;71.90
40257;DHT22;25977;45.462;9.210;2023-03-31T05:03:13;15.60;71.90
40257;DHT22;25977;45.462;9.210;2023-03-31T05:05:39;15.60;72.20
40257;DHT22;25977;45.462;9.210;2023-03-31T05:08:05;15.50;72.70
40257;DHT22;25977;45.462;9.210;2023-03-31T05:10:30;15.50;72.50
40257;DHT22;25977;45.462;9.210;2023-03-31T05:12:56;15.60;72.40
40257;DHT22;25977;45.462;9.210;2023-03-31T05:15:22;15.60;72.20
40257;DHT22;25977;45.462;9.210;2023-03-31T05:17:51;15.60;72.10
40257;DHT22;25977;45.462;9.210;2023-03-31T05:20:17;15.70;72.10
40257;DHT22;25977;45.462;9.210;2023-03-31T05:22:44;15.70;72.10
40257;DHT22;25977;45.462;9.210;2023-03-31T05:25:10;15.70;72.10
40257;DHT22;25977;45.462;9.210;2023-03-31T05:27:38;15.70;72.10
40257;DHT22;25977;45.462;9.210;2023-03-31T05:30:05;15.70;72.10
40257;DHT22;25977;45.462;9.210;2023-03-31T05:32:33;15.70;72.10
40257;DHT22;25977;45.462;9.210;2023-03-31T05:34:58;15.70;72.10
40257;DHT22;25977;45.462;9.210;2023-03-31T05:37:24;15.60;72.10
40257;DHT22;25977;45.462;9.210;2023-03-31T05:39:51;15.70;72.20
40257;DHT22;25977;45.462;9.210;2023-03-31T05:42:17;15.60;72.40
40257;DHT22;25977;45.462;9.210;2023-03-31T05:44:43;15.70;72.60
40257;DHT22;25977;45.462;9.210;2023-03-31T05:47:10;15.70;72.80
40257;DHT22;25977;45.462;9.210;2023-03-31T05:49:35;15.80;72.90
40257;DHT22;25977;45.462;9.210;2023-03-31T05:52:01;15.80;72.80
40257;DHT22;25977;45.462;9.210;2023-03-31T05:54:26;15.90;72.70
40257;DHT22;25977;45.462;9.210;2023-03-31T05:56:52;15.80;72.70
40257;DHT22;25977;45.462;9.210;2023-03-31T05:59:18;15.80;72.60
40257;DHT22;25977;45.462;9.210;2023-03-31T06:01:44;15.80;72.60
40257;DHT22;25977;45.462;9.210;2023-03-31T06:04:09;15.80;73.40
40257;DHT22;25977;45.462;9.210;2023-03-31T06:06:35;15.90;73.40
40257;DHT22;25977;45.462;9.210;2023-03-31T06:09:03;15.90;77.90
40257;DHT22;25977;45.462;9.210;2023-03-31T06:11:29;15.90;72.70
40257;DHT22;25977;45.462;9.210;2023-03-31T06:13:55;15.90;72.80
40257;DHT22;25977;45.462;9.210;2023-03-31T06:16:20;15.50;88.80
40257;DHT22;25977;45.462;9.210;2023-03-31T06:18:47;15.90;72.20
40257;DHT22;25977;45.462;9.210;2023-03-31T06:21:15;15.90;72.60
40257;DHT22;25977;45.462;9.210;2023-03-31T06:23:41;15.70;85.90
40257;DHT22;25977;45.462;9.210;2023-03-31T06:26:17;16.30;79.00
40257;DHT22;25977;45.462;9.210;2023-03-31T06:28:44;15.80;72.60
40257;DHT22;25977;45.462;9.210;2023-03-31T06:31:12;15.80;72.60
40257;DHT22;25977;45.462;9.210;2023-03-31T06:33:40;15.90;72.70
40257;DHT22;25977;45.462;9.210;2023-03-31T06:36:06;15.90;72.80
40257;DHT22;25977;45.462;9.210;2023-03-31T06:38:34;15.90;72.80
40257;DHT22;25977;45.462;9.210;2023-03-31T06:41:00;15.90;72.80
40257;DHT22;25977;45.462;9.210;2023-03-31T06:43:27;15.90;72.70
40257;DHT22;25977;45.462;9.210;2023-03-31T06:45:53;16.40;85.70
40257;DHT22;25977;45.462;9.210;2023-03-31T06:48:19;16.90;75.10
40257;DHT22;25977;45.462;9.210;2023-03-31T06:50:45;15.90;72.60
40257;DHT22;25977;45.462;9.210;2023-03-31T06:53:11;15.90;72.80
40257;DHT22;25977;45.462;9.210;2023-03-31T06:55:37;15.90;72.90
40257;DHT22;25977;45.462;9.210;2023-03-31T06:58:04;15.80;75.80
40257;DHT22;25977;45.462;9.210;2023-03-31T07:02:57;16.00;72.50
40257;DHT22;25977;45.462;9.210;2023-03-31T07:05:22;16.00;72.90
40257;DHT22;25977;45.462;9.210;2023-03-31T07:07:54;16.00;73.00
40257;DHT22;25977;45.462;9.210;2023-03-31T07:10:21;16.00;73.00
40257;DHT22;25977;45.462;9.210;2023-03-31T07:12:47;16.00;73.10
40257;DHT22;25977;45.462;9.210;2023-03-31T07:15:13;16.00;73.10
40257;DHT22;25977;45.462;9.210;2023-03-31T07:17:39;16.00;73.00
40257;DHT22;25977;45.462;9.210;2023-03-31T07:20:12;16.00;73.00
40257;DHT22;25977;45.462;9.210;2023-03-31T07:22:43;16.00;72.90
40257;DHT22;25977;45.462;9.210;2023-03-31T07:25:11;16.10;72.50
40257;DHT22;25977;45.462;9.210;2023-03-31T07:27:38;16.00;72.70
40257;DHT22;25977;45.462;9.210;2023-03-31T07:30:05;16.10;72.70
40257;DHT22;25977;45.462;9.210;2023-03-31T07:32:31;16.10;72.40
40257;DHT22;25977;45.462;9.210;2023-03-31T07:34:58;16.30;72.30
40257;DHT22;25977;45.462;9.210;2023-03-31T07:37:23;16.30;72.10
40257;DHT22;25977;45.462;9.210;2023-03-31T07:39:50;16.40;72.10
40257;DHT22;25977;45.462;9.210;2023-03-31T07:42:15;16.40;72.20
40257;DHT22;25977;45.462;9.210;2023-03-31T07:44:41;16.40;72.30
40257;DHT22;25977;45.462;9.210;2023-03-31T07:47:07;16.40;72.30
40257;DHT22;25977;45.462;9.210;2023-03-31T07:49:33;16.40;72.20
40257;DHT22;25977;45.462;9.210;2023-03-31T07:51:59;16.40;71.90
40257;DHT22;25977;45.462;9.210;2023-03-31T07:54:25;16.40;71.60
40257;DHT22;25977;45.462;9.210;2023-03-31T07:56:51;16.40;71.30
40257;DHT22;25977;45.462;9.210;2023-03-31T07:59:17;16.40;71.20
40257;DHT22;25977;45.462;9.210;2023-03-31T08:01:44;16.50;70.80
40257;DHT22;25977;45.462;9.210;2023-03-31T08:04:11;16.50;69.80
40257;DHT22;25977;45.462;9.210;2023-03-31T08:06:37;16.50;69.20
40257;DHT22;25977;45.462;9.210;2023-03-31T08:09:04;16.50;69.10
40257;DHT22;25977;45.462;9.210;2023-03-31T08:11:31;16.50;68.60
40257;DHT22;25977;45.462;9.210;2023-03-31T08:13:57;16.50;68.70
40257;DHT22;25977;45.462;9.210;2023-03-31T08:16:22;16.60;68.30
40257;DHT22;25977;45.462;9.210;2023-03-31T08:18:48;16.50;68.50
40257;DHT22;25977;45.462;9.210;2023-03-31T08:21:14;16.60;67.80
40257;DHT22;25977;45.462;9.210;2023-03-31T08:23:40;16.70;68.20
40257;DHT22;25977;45.462;9.210;2023-03-31T08:26:13;16.70;68.50
40257;DHT22;25977;45.462;9.210;2023-03-31T08:28:39;16.70;68.30
40257;DHT22;25977;45.462;9.210;2023-03-31T08:31:06;16.60;68.60
40257;DHT22;25977;45.462;9.210;2023-03-31T08:33:32;16.60;68.70
40257;DHT22;25977;45.462;9.210;2023-03-31T08:36:03;16.80;68.40
40257;DHT22;25977;45.462;9.210;2023-03-31T08:38:30;17.00;68.30
40257;DHT22;25977;45.462;9.210;2023-03-31T08:41:02;17.10;68.00
40257;DHT22;25977;45.462;9.210;2023-03-31T08:43:36;17.20;67.80
40257;DHT22;25977;45.462;9.210;2023-03-31T08:46:05;17.30;67.70
40257;DHT22;25977;45.462;9.210;2023-03-31T08:48:40;17.30;67.70
40257;DHT22;25977;45.462;9.210;2023-03-31T08:51:21;17.20;67.20
40257;DHT22;25977;45.462;9.210;2023-03-31T08:54:11;17.30;67.10
40257;DHT22;25977;45.462;9.210;2023-03-31T08:56:41;17.40;66.40
40257;DHT22;25977;45.462;9.210;2023-03-31T08:59:28;17.20;66.60
40257;DHT22;25977;45.462;9.210;2023-03-31T09:15:15;17.10;66.60
40257;DHT22;25977;45.462;9.210;2023-03-31T09:17:48;17.10;66.60
40257;DHT22;25977;45.462;9.210;2023-03-31T09:20:20;17.50;66.30
40257;DHT22;25977;45.462;9.210;2023-03-31T09:22:51;17.70;65.80
40257;DHT22;25977;45.462;9.210;2023-03-31T09:25:24;17.80;65.30
40257;DHT22;25977;45.462;9.210;2023-03-31T09:27:55;17.60;65.30
40257;DHT22;25977;45.462;9.210;2023-03-31T09:30:33;17.50;64.80
40257;DHT22;25977;45.462;9.210;2023-03-31T09:33:21;17.70;65.00
40257;DHT22;25977;45.462;9.210;2023-03-31T09:35:49;17.80;64.90
40257;DHT22;25977;45.462;9.210;2023-03-31T09:38:15;18.00;64.20
40257;DHT22;25977;45.462;9.210;2023-03-31T09:40:41;18.00;64.00
40257;DHT22;25977;45.462;9.210;2023-03-31T09:43:17;17.90;64.20
40257;DHT22;25977;45.462;9.210;2023-03-31T09:45:46;17.40;64.80
40257;DHT22;25977;45.462;9.210;2023-03-31T09:48:22;17.40;65.50
40257;DHT22;25977;45.462;9.210;2023-03-31T09:51:15;17.50;65.50
40257;DHT22;25977;45.462;9.210;2023-03-31T09:54:18;17.40;65.60
40257;DHT22;25977;45.462;9.210;2023-03-31T09:59:14;17.60;65.90
40257;DHT22;25977;45.462;9.210;2023-03-31T10:01:41;17.60;66.50
40257;DHT22;25977;45.462;9.210;2023-03-31T10:04:22;17.50;66.20
40257;DHT22;25977;45.462;9.210;2023-03-31T10:06:50;17.60;66.40
40257;DHT22;25977;45.462;9.210;2023-03-31T10:09:19;17.50;66.60
40257;DHT22;25977;45.462;9.210;2023-03-31T10:12:15;17.70;75.70
40257;DHT22;25977;45.462;9.210;2023-03-31T10:14:46;17.30;66.90
40257;DHT22;25977;45.462;9.210;2023-03-31T10:17:15;17.40;67.40
40257;DHT22;25977;45.462;9.210;2023-03-31T10:20:18;17.50;67.40
40257;DHT22;25977;45.462;9.210;2023-03-31T10:22:44;17.60;67.40
40257;DHT22;25977;45.462;9.210;2023-03-31T10:25:20;17.60;67.00
40257;DHT22;25977;45.462;9.210;2023-03-31T10:27:51;17.70;67.00
40257;DHT22;25977;45.462;9.210;2023-03-31T10:30:21;17.50;67.30
40257;DHT22;25977;45.462;9.210;2023-03-31T10:32:47;17.50;67.30
40257;DHT22;25977;45.462;9.210;2023-03-31T10:35:25;17.30;67.60
40257;DHT22;25977;45.462;9.210;2023-03-31T10:37:58;17.40;67.80
40257;DHT22;25977;45.462;9.210;2023-03-31T10:40:28;17.40;67.40
40257;DHT22;25977;45.462;9.210;2023-03-31T10:45:30;17.30;67.70
40257;DHT22;25977;45.462;9.210;2023-03-31T10:48:22;17.40;67.70
40257;DHT22;25977;45.462;9.210;2023-03-31T10:50:50;17.40;67.70
40257;DHT22;25977;45.462;9.210;2023-03-31T10:53:16;17.50;67.60
40257;DHT22;25977;45.462;9.210;2023-03-31T11:00:53;17.60;67.60
40257;DHT22;25977;45.462;9.210;2023-03-31T11:03:53;17.50;67.40
40257;DHT22;25977;45.462;9.210;2023-03-31T11:06:45;17.60;67.30
40257;DHT22;25977;45.462;9.210;2023-03-31T11:09:30;17.50;67.80
40257;DHT22;25977;45.462;9.210;2023-03-31T11:12:20;17.10;68.50
40257;DHT22;25977;45.462;9.210;2023-03-31T11:17:52;16.90;68.70
40257;DHT22;25977;45.462;9.210;2023-03-31T11:26:06;17.20;68.40
40257;DHT22;25977;45.462;9.210;2023-03-31T11:37:35;16.80;68.80
40257;DHT22;25977;45.462;9.210;2023-03-31T11:40:20;17.00;68.60
40257;DHT22;25977;45.462;9.210;2023-03-31T11:45:44;17.10;68.50
40257;DHT22;25977;45.462;9.210;2023-03-31T11:50:57;17.30;68.30
40257;DHT22;25977;45.462;9.210;2023-03-31T11:53:28;17.50;68.10
40257;DHT22;25977;45.462;9.210;2023-03-31T11:55:57;17.60;67.80
40257;DHT22;25977;45.462;9.210;2023-03-31T11:58:43;17.40;67.90
40257;DHT22;25977;45.462;9.210;2023-03-31T12:04:04;17.10;68.90
40257;DHT22;25977;45.462;9.210;2023-03-31T12:06:34;17.20;68.70
40257;DHT22;25977;45.462;9.210;2023-03-31T12:09:06;17.20;68.90
40257;DHT22;25977;45.462;9.210;2023-03-31T12:14:28;17.30;68.70
40257;DHT22;25977;45.462;9.210;2023-03-31T12:17:03;17.30;68.60
40257;DHT22;25977;45.462;9.210;2023-03-31T12:20:04;17.30;68.60
40257;DHT22;25977;45.462;9.210;2023-03-31T12:22:44;17.10;69.00
40257;DHT22;25977;45.462;9.210;2023-03-31T12:25:17;17.10;69.00
40257;DHT22;25977;45.462;9.210;2023-03-31T12:27:47;17.10;69.00
40257;DHT22;25977;45.462;9.210;2023-03-31T12:30:30;17.20;68.90
40257;DHT22;25977;45.462;9.210;2023-03-31T12:33:17;17.30;68.70
40257;DHT22;25977;45.462;9.210;2023-03-31T12:50:13;17.00;69.10
40257;DHT22;25977;45.462;9.210;2023-03-31T12:57:49;16.80;69.40
40257;DHT22;25977;45.462;9.210;2023-03-31T13:00:24;16.80;69.50
40257;DHT22;25977;45.462;9.210;2023-03-31T13:05:54;16.90;69.40
40257;DHT22;25977;45.462;9.210;2023-03-31T13:08:49;17.00;69.30
40257;DHT22;25977;45.462;9.210;2023-03-31T13:11:15;16.90;69.60
40257;DHT22;25977;45.462;9.210;2023-03-31T13:14:15;16.90;69.30
40257;DHT22;25977;45.462;9.210;2023-03-31T13:16:42;16.80;69.50
40257;DHT22;25977;45.462;9.210;2023-03-31T13:19:12;16.90;69.40
40257;DHT22;25977;45.462;9.210;2023-03-31T13:21:56;16.70;69.60
40257;DHT22;25977;45.462;9.210;2023-03-31T13:24:26;16.80;69.40
40257;DHT22;25977;45.462;9.210;2023-03-31T13:26:53;16.80;69.50
40257;DHT22;25977;45.462;9.210;2023-03-31T13:29:40;16.70;69.40
40257;DHT22;25977;45.462;9.210;2023-03-31T13:32:23;16.80;69.60
40257;DHT22;25977;45.462;9.210;2023-03-31T13:35:03;16.70;69.70
40257;DHT22;25977;45.462;9.210;2023-03-31T13:37:55;16.70;69.60
40257;DHT22;25977;45.462;9.210;2023-03-31T13:54:50;16.70;69.10
40257;DHT22;25977;45.462;9.210;2023-03-31T14:08:19;16.70;69.30
40257;DHT22;25977;45.462;9.210;2023-03-31T14:10:49;16.80;69.70
40257;DHT22;25977;45.462;9.210;2023-03-31T14:13:17;16.90;69.10
40257;DHT22;25977;45.462;9.210;2023-03-31T14:18:24;16.70;69.20
40257;DHT22;25977;45.462;9.210;2023-03-31T14:23:52;17.00;68.70
40257;DHT22;25977;45.462;9.210;2023-03-31T14:32:24;17.10;68.60
40257;DHT22;25977;45.462;9.210;2023-03-31T14:37:24;17.00;68.60
40257;DHT22;25977;45.462;9.210;2023-03-31T14:39:54;17.10;68.60
40257;DHT22;25977;45.462;9.210;2023-03-31T14:42:38;17.10;68.50
40257;DHT22;25977;45.462;9.210;2023-03-31T14:45:14;17.10;68.50
40257;DHT22;25977;45.462;9.210;2023-03-31T14:47:40;17.10;68.40
40257;DHT22;25977;45.462;9.210;2023-03-31T14:50:16;17.10;68.60
40257;DHT22;25977;45.462;9.210;2023-03-31T14:52:50;17.10;68.50
40257;DHT22;25977;45.462;9.210;2023-03-31T14:55:19;17.10;68.60
40257;DHT22;25977;45.462;9.210;2023-03-31T14:57:48;16.90;68.80
40257;DHT22;25977;45.462;9.210;2023-03-31T15:00:26;17.00;68.80
40257;DHT22;25977;45.462;9.210;2023-03-31T15:02:53;16.90;68.90
40257;DHT22;25977;45.462;9.210;2023-03-31T15:05:39;16.90;68.90
40257;DHT22;25977;45.462;9.210;2023-03-31T15:08:20;17.00;68.90
40257;DHT22;25977;45.462;9.210;2023-03-31T15:10:56;16.90;68.80
40257;DHT22;25977;45.462;9.210;2023-03-31T15:13:33;16.80;69.10
40257;DHT22;25977;45.462;9.210;2023-03-31T15:16:19;16.90;69.10
40257;DHT22;25977;45.462;9.210;2023-03-31T15:18:45;17.00;69.10
40257;DHT22;25977;45.462;9.210;2023-03-31T15:21:22;17.00;68.90
40257;DHT22;25977;45.462;9.210;2023-03-31T15:23:51;17.00;68.80
40257;DHT22;25977;45.462;9.210;2023-03-31T15:26:19;17.10;68.90
40257;DHT22;25977;45.462;9.210;2023-03-31T15:28:56;17.00;69.00
40257;DHT22;25977;45.462;9.210;2023-03-31T15:31:22;17.00;69.70
40257;DHT22;25977;45.462;9.210;2023-03-31T15:33:51;16.90;69.40
40257;DHT22;25977;45.462;9.210;2023-03-31T15:36:19;16.90;69.60
40257;DHT22;25977;45.462;9.210;2023-03-31T15:38:46;16.70;69.80
40257;DHT22;25977;45.462;9.210;2023-03-31T15:41:19;16.70;70.50
40257;DHT22;25977;45.462;9.210;2023-03-31T15:43:48;16.70;70.10
40257;DHT22;25977;45.462;9.210;2023-03-31T15:49:19;16.80;69.90
40257;DHT22;25977;45.462;9.210;2023-03-31T15:51:46;16.80;70.00
40257;DHT22;25977;45.462;9.210;2023-03-31T15:54:51;16.70;70.00
40257;DHT22;25977;45.462;9.210;2023-03-31T15:57:16;16.70;70.00
40257;DHT22;25977;45.462;9.210;2023-03-31T15:59:50;16.70;70.10
40257;DHT22;25977;45.462;9.210;2023-03-31T16:02:26;16.70;78.30
40257;DHT22;25977;45.462;9.210;2023-03-31T16:04:56;16.60;70.10
40257;DHT22;25977;45.462;9.210;2023-03-31T16:07:24;16.60;70.10
40257;DHT22;25977;45.462;9.210;2023-03-31T16:09:56;16.70;70.20
40257;DHT22;25977;45.462;9.210;2023-03-31T16:15:09;16.60;70.40
40257;DHT22;25977;45.462;9.210;2023-03-31T16:17:45;16.30;70.50
40257;DHT22;25977;45.462;9.210;2023-03-31T16:20:25;16.40;70.90
40257;DHT22;25977;45.462;9.210;2023-03-31T16:22:55;16.40;70.90
40257;DHT22;25977;45.462;9.210;2023-03-31T16:25:24;16.50;71.00
40257;DHT22;25977;45.462;9.210;2023-03-31T16:27:57;16.50;70.90
40257;DHT22;25977;45.462;9.210;2023-03-31T16:30:40;16.50;71.10
40257;DHT22;25977;45.462;9.210;2023-03-31T16:33:11;16.50;71.00
40257;DHT22;25977;45.462;9.210;2023-03-31T16:35:43;16.50;70.90
40257;DHT22;25977;45.462;9.210;2023-03-31T16:38:11;16.50;70.90
40257;DHT22;25977;45.462;9.210;2023-03-31T16:40:39;16.50;71.00
40257;DHT22;25977;45.462;9.210;2023-03-31T16:43:10;16.40;71.70
40257;DHT22;25977;45.462;9.210;2023-03-31T16:45:36;16.30;72.70
40257;DHT22;25977;45.462;9.210;2023-03-31T16:48:02;16.30;72.60
40257;DHT22;25977;45.462;9.210;2023-03-31T16:50:28;16.30;72.70
40257;DHT22;25977;45.462;9.210;2023-03-31T16:52:54;16.30;73.00
40257;DHT22;25977;45.462;9.210;2023-03-31T16:55:20;16.30;73.30
40257;DHT22;25977;45.462;9.210;2023-03-31T16:57:45;16.20;73.40
40257;DHT22;25977;45.462;9.210;2023-03-31T17:00:12;16.20;73.50
40257;DHT22;25977;45.462;9.210;2023-03-31T17:02:37;16.00;74.20
40257;DHT22;25977;45.462;9.210;2023-03-31T17:05:04;15.90;74.20
40257;DHT22;25977;45.462;9.210;2023-03-31T17:07:30;15.60;74.70
40257;DHT22;25977;45.462;9.210;2023-03-31T17:09:56;15.60;74.40
40257;DHT22;25977;45.462;9.210;2023-03-31T17:12:21;15.70;73.90
40257;DHT22;25977;45.462;9.210;2023-03-31T17:14:47;15.80;73.90
40257;DHT22;25977;45.462;9.210;2023-03-31T17:17:13;15.80;73.70
40257;DHT22;25977;45.462;9.210;2023-03-31T17:19:38;15.90;73.60
40257;DHT22;25977;45.462;9.210;2023-03-31T17:22:04;15.90;73.50
40257;DHT22;25977;45.462;9.210;2023-03-31T17:24:29;15.90;73.50
40257;DHT22;25977;45.462;9.210;2023-03-31T17:26:55;15.90;73.40
40257;DHT22;25977;45.462;9.210;2023-03-31T17:29:21;15.90;73.30
40257;DHT22;25977;45.462;9.210;2023-03-31T17:31:47;16.00;73.20
40257;DHT22;25977;45.462;9.210;2023-03-31T17:34:13;16.00;73.20
40257;DHT22;25977;45.462;9.210;2023-03-31T17:36:38;16.00;73.10
40257;DHT22;25977;45.462;9.210;2023-03-31T17:39:06;16.00;73.00
40257;DHT22;25977;45.462;9.210;2023-03-31T17:41:31;16.00;73.20
40257;DHT22;25977;45.462;9.210;2023-03-31T17:43:57;15.90;73.30
40257;DHT22;25977;45.462;9.210;2023-03-31T17:46:23;15.90;73.00
40257;DHT22;25977;45.462;9.210;2023-03-31T17:48:49;15.90;72.90
40257;DHT22;25977;45.462;9.210;2023-03-31T17:51:17;16.00;72.90
40257;DHT22;25977;45.462;9.210;2023-03-31T17:53:44;15.90;72.60
40257;DHT22;25977;45.462;9.210;2023-03-31T17:56:11;15.90;72.60
40257;DHT22;25977;45.462;9.210;2023-03-31T17:58:37;15.90;72.50
40257;DHT22;25977;45.462;9.210;2023-03-31T18:01:04;16.00;72.60
40257;DHT22;25977;45.462;9.210;2023-03-31T18:03:30;16.00;72.50
40257;DHT22;25977;45.462;9.210;2023-03-31T18:05:59;16.00;72.60
40257;DHT22;25977;45.462;9.210;2023-03-31T18:08:26;15.90;72.20
40257;DHT22;25977;45.462;9.210;2023-03-31T18:10:52;16.00;72.10
40257;DHT22;25977;45.462;9.210;2023-03-31T18:13:18;15.90;72.10
40257;DHT22;25977;45.462;9.210;2023-03-31T18:15:49;15.90;72.10
40257;DHT22;25977;45.462;9.210;2023-03-31T18:18:17;15.90;72.20
40257;DHT22;25977;45.462;9.210;2023-03-31T18:20:43;15.90;72.10
40257;DHT22;25977;45.462;9.210;2023-03-31T18:23:10;16.00;72.20
40257;DHT22;25977;45.462;9.210;2023-03-31T18:25:36;15.90;72.20
40257;DHT22;25977;45.462;9.210;2023-03-31T18:28:01;15.90;72.50
40257;DHT22;25977;45.462;9.210;2023-03-31T18:30:27;15.90;72.50
40257;DHT22;25977;45.462;9.210;2023-03-31T18:32:53;15.90;72.40
40257;DHT22;25977;45.462;9.210;2023-03-31T18:35:19;15.90;72.40
40257;DHT22;25977;45.462;9.210;2023-03-31T18:37:46;15.80;72.10
40257;DHT22;25977;45.462;9.210;2023-03-31T18:40:12;15.50;72.00
40257;DHT22;25977;45.462;9.210;2023-03-31T18:42:40;15.70;72.70
40257;DHT22;25977;45.462;9.210;2023-03-31T18:45:06;16.20;72.20